sensor_id;sensor_type;location;lat;lon;timestamp;P1;durP1;ratioP1;P2;durP2;ratioP2
39176;SDS011;24904;52.208;21.192;2022-12-07T00:04:24;32.40;;;20.80;;
39176;SDS011;24904;52.208;21.192;2022-12-07T00:09:27;34.10;;;20.80;;
39176;SDS011;24904;52.208;21.192;2022-12-07T00:14:30;34.20;;;20.80;;
39176;SDS011;24904;52.208;21.192;2022-12-07T00:19:34;32.80;;;19.20;;
39176;SDS011;24904;52.208;21.192;2022-12-07T00:24:37;33.10;;;19.90;;
39176;SDS011;24904;52.208;21.192;2022-12-07T00:29:40;31.40;;;18.00;;
39176;SDS011;24904;52.208;21.192;2022-12-07T00:34:43;32.70;;;19.30;;
39176;SDS011;24904;52.208;21.192;2022-12-07T00:39:46;24.60;;;17.20;;
39176;SDS011;24904;52.208;21.192;2022-12-07T00:44:49;30.40;;;19.00;;
39176;SDS011;24904;52.208;21.192;2022-12-07T00:49:52;28.70;;;18.60;;
39176;SDS011;24904;52.208;21.192;2022-12-07T00:54:55;27.50;;;17.30;;
39176;SDS011;24904;52.208;21.192;2022-12-07T00:59:58;29.70;;;17.50;;
39176;SDS011;24904;52.208;21.192;2022-12-07T01:05:01;29.60;;;18.70;;
39176;SDS011;24904;52.208;21.192;2022-12-07T01:10:06;26.70;;;17.00;;
39176;SDS011;24904;52.208;21.192;2022-12-07T01:15:10;30.30;;;18.10;;
39176;SDS011;24904;52.208;21.192;2022-12-07T01:20:13;31.10;;;19.10;;
39176;SDS011;24904;52.208;21.192;2022-12-07T01:25:17;34.00;;;18.00;;
39176;SDS011;24904;52.208;21.192;2022-12-07T01:30:20;31.20;;;17.80;;
39176;SDS011;24904;52.208;21.192;2022-12-07T01:35:23;31.20;;;18.00;;
39176;SDS011;24904;52.208;21.192;2022-12-07T01:40:26;27.30;;;16.90;;
39176;SDS011;24904;52.208;21.192;2022-12-07T01:50:42;33.10;;;19.10;;
39176;SDS011;24904;52.208;21.192;2022-12-07T01:55:47;29.10;;;18.00;;
39176;SDS011;24904;52.208;21.192;2022-12-07T02:00:53;30.90;;;19.40;;
39176;SDS011;24904;52.208;21.192;2022-12-07T02:05:56;34.90;;;20.30;;
39176;SDS011;24904;52.208;21.192;2022-12-07T02:11:01;28.40;;;18.40;;
39176;SDS011;24904;52.208;21.192;2022-12-07T02:16:14;29.50;;;18.30;;
39176;SDS011;24904;52.208;21.192;2022-12-07T02:21:27;32.60;;;19.30;;
39176;SDS011;24904;52.208;21.192;2022-12-07T02:32:15;28.80;;;16.90;;
39176;SDS011;24904;52.208;21.192;2022-12-07T02:37:27;24.50;;;14.90;;
39176;SDS011;24904;52.208;21.192;2022-12-07T02:42:36;22.20;;;13.40;;
39176;SDS011;24904;52.208;21.192;2022-12-07T02:47:44;19.50;;;11.00;;
39176;SDS011;24904;52.208;21.192;2022-12-07T02:52:50;19.50;;;11.20;;
39176;SDS011;24904;52.208;21.192;2022-12-07T02:58:09;16.20;;;10.70;;
39176;SDS011;24904;52.208;21.192;2022-12-07T03:03:23;16.00;;;9.90;;
39176;SDS011;24904;52.208;21.192;2022-12-07T03:08:30;14.70;;;9.60;;
39176;SDS011;24904;52.208;21.192;2022-12-07T03:13:41;16.40;;;8.20;;
39176;SDS011;24904;52.208;21.192;2022-12-07T03:18:52;13.60;;;8.40;;
39176;SDS011;24904;52.208;21.192;2022-12-07T03:23:59;12.60;;;8.60;;
39176;SDS011;24904;52.208;21.192;2022-12-07T03:29:09;13.80;;;8.30;;
39176;SDS011;24904;52.208;21.192;2022-12-07T03:34:20;11.30;;;7.90;;
39176;SDS011;24904;52.208;21.192;2022-12-07T03:44:36;11.90;;;8.00;;
39176;SDS011;24904;52.208;21.192;2022-12-07T03:49:41;11.50;;;7.70;;
39176;SDS011;24904;52.208;21.192;2022-12-07T03:54:54;12.70;;;8.50;;
39176;SDS011;24904;52.208;21.192;2022-12-07T04:00:07;9.00;;;6.10;;
39176;SDS011;24904;52.208;21.192;2022-12-07T04:15:26;9.80;;;6.40;;
39176;SDS011;24904;52.208;21.192;2022-12-07T04:20:29;7.20;;;5.10;;
39176;SDS011;24904;52.208;21.192;2022-12-07T04:25:32;8.90;;;4.70;;
39176;SDS011;24904;52.208;21.192;2022-12-07T04:30:35;5.60;;;3.90;;
39176;SDS011;24904;52.208;21.192;2022-12-07T04:35:38;7.80;;;4.20;;
39176;SDS011;24904;52.208;21.192;2022-12-07T04:40:41;8.60;;;4.60;;
39176;SDS011;24904;52.208;21.192;2022-12-07T04:45:46;7.20;;;4.60;;
39176;SDS011;24904;52.208;21.192;2022-12-07T04:50:49;7.10;;;4.50;;
39176;SDS011;24904;52.208;21.192;2022-12-07T04:55:52;10.00;;;4.30;;
39176;SDS011;24904;52.208;21.192;2022-12-07T05:00:55;8.80;;;4.30;;
39176;SDS011;24904;52.208;21.192;2022-12-07T05:05:58;7.80;;;4.70;;
39176;SDS011;24904;52.208;21.192;2022-12-07T05:11:01;7.00;;;5.00;;
39176;SDS011;24904;52.208;21.192;2022-12-07T05:16:05;6.60;;;4.40;;
39176;SDS011;24904;52.208;21.192;2022-12-07T05:21:09;8.10;;;4.50;;
39176;SDS011;24904;52.208;21.192;2022-12-07T05:26:12;7.00;;;4.80;;
39176;SDS011;24904;52.208;21.192;2022-12-07T05:31:15;7.80;;;4.80;;
39176;SDS011;24904;52.208;21.192;2022-12-07T05:36:18;7.50;;;5.20;;
39176;SDS011;24904;52.208;21.192;2022-12-07T05:41:21;9.30;;;5.30;;
39176;SDS011;24904;52.208;21.192;2022-12-07T05:46:42;9.10;;;5.70;;
39176;SDS011;24904;52.208;21.192;2022-12-07T05:51:45;7.90;;;5.30;;
39176;SDS011;24904;52.208;21.192;2022-12-07T05:56:48;9.20;;;5.90;;
39176;SDS011;24904;52.208;21.192;2022-12-07T06:01:52;12.50;;;5.80;;
39176;SDS011;24904;52.208;21.192;2022-12-07T06:06:56;11.80;;;7.20;;
39176;SDS011;24904;52.208;21.192;2022-12-07T06:11:59;9.90;;;6.50;;
39176;SDS011;24904;52.208;21.192;2022-12-07T06:17:21;11.30;;;7.10;;
39176;SDS011;24904;52.208;21.192;2022-12-07T06:22:24;11.70;;;6.40;;
39176;SDS011;24904;52.208;21.192;2022-12-07T06:27:27;10.50;;;7.00;;
39176;SDS011;24904;52.208;21.192;2022-12-07T06:32:30;10.70;;;7.50;;
39176;SDS011;24904;52.208;21.192;2022-12-07T06:37:33;10.70;;;7.80;;
39176;SDS011;24904;52.208;21.192;2022-12-07T06:42:36;12.20;;;7.60;;
39176;SDS011;24904;52.208;21.192;2022-12-07T06:47:39;11.40;;;8.20;;
39176;SDS011;24904;52.208;21.192;2022-12-07T06:52:42;14.80;;;8.30;;
39176;SDS011;24904;52.208;21.192;2022-12-07T06:57:45;12.50;;;8.20;;
39176;SDS011;24904;52.208;21.192;2022-12-07T07:02:48;13.70;;;7.70;;
39176;SDS011;24904;52.208;21.192;2022-12-07T07:07:51;12.50;;;7.70;;
39176;SDS011;24904;52.208;21.192;2022-12-07T07:12:54;13.40;;;6.70;;
39176;SDS011;24904;52.208;21.192;2022-12-07T07:17:57;12.70;;;7.40;;
39176;SDS011;24904;52.208;21.192;2022-12-07T07:23:00;11.50;;;7.10;;
39176;SDS011;24904;52.208;21.192;2022-12-07T07:28:04;12.60;;;7.80;;
39176;SDS011;24904;52.208;21.192;2022-12-07T07:33:07;11.30;;;7.50;;
39176;SDS011;24904;52.208;21.192;2022-12-07T07:38:11;15.80;;;8.80;;
39176;SDS011;24904;52.208;21.192;2022-12-07T07:43:14;11.90;;;7.90;;
39176;SDS011;24904;52.208;21.192;2022-12-07T07:48:17;11.20;;;8.30;;
39176;SDS011;24904;52.208;21.192;2022-12-07T07:53:20;11.30;;;7.50;;
39176;SDS011;24904;52.208;21.192;2022-12-07T07:58:23;12.00;;;7.90;;
39176;SDS011;24904;52.208;21.192;2022-12-07T08:03:26;12.80;;;7.20;;
39176;SDS011;24904;52.208;21.192;2022-12-07T08:08:29;11.30;;;6.90;;
39176;SDS011;24904;52.208;21.192;2022-12-07T08:13:33;10.90;;;7.00;;
39176;SDS011;24904;52.208;21.192;2022-12-07T08:18:36;11.60;;;7.40;;
39176;SDS011;24904;52.208;21.192;2022-12-07T08:23:41;11.20;;;7.20;;
39176;SDS011;24904;52.208;21.192;2022-12-07T08:28:44;9.60;;;7.00;;
39176;SDS011;24904;52.208;21.192;2022-12-07T08:33:47;10.40;;;6.70;;
39176;SDS011;24904;52.208;21.192;2022-12-07T08:38:51;9.30;;;5.70;;
39176;SDS011;24904;52.208;21.192;2022-12-07T08:43:54;10.80;;;7.20;;
39176;SDS011;24904;52.208;21.192;2022-12-07T08:48:58;15.90;;;6.80;;
39176;SDS011;24904;52.208;21.192;2022-12-07T08:54:06;14.10;;;8.30;;
39176;SDS011;24904;52.208;21.192;2022-12-07T08:59:13;15.50;;;8.00;;
39176;SDS011;24904;52.208;21.192;2022-12-07T09:04:19;16.50;;;9.00;;
39176;SDS011;24904;52.208;21.192;2022-12-07T09:09:22;15.90;;;10.20;;
39176;SDS011;24904;52.208;21.192;2022-12-07T09:14:25;16.40;;;11.20;;
39176;SDS011;24904;52.208;21.192;2022-12-07T09:19:28;21.10;;;11.90;;
39176;SDS011;24904;52.208;21.192;2022-12-07T09:24:31;20.80;;;11.20;;
39176;SDS011;24904;52.208;21.192;2022-12-07T09:29:35;24.70;;;12.80;;
39176;SDS011;24904;52.208;21.192;2022-12-07T09:34:38;24.30;;;12.50;;
39176;SDS011;24904;52.208;21.192;2022-12-07T09:39:41;17.50;;;11.80;;
39176;SDS011;24904;52.208;21.192;2022-12-07T09:44:44;22.20;;;12.30;;
39176;SDS011;24904;52.208;21.192;2022-12-07T09:49:47;23.30;;;12.30;;
39176;SDS011;24904;52.208;21.192;2022-12-07T09:54:50;19.10;;;11.60;;
39176;SDS011;24904;52.208;21.192;2022-12-07T09:59:54;22.30;;;12.80;;
39176;SDS011;24904;52.208;21.192;2022-12-07T10:05:01;22.20;;;12.30;;
39176;SDS011;24904;52.208;21.192;2022-12-07T10:10:12;21.70;;;12.20;;
39176;SDS011;24904;52.208;21.192;2022-12-07T10:15:17;24.00;;;12.90;;
39176;SDS011;24904;52.208;21.192;2022-12-07T10:20:24;22.40;;;12.20;;
39176;SDS011;24904;52.208;21.192;2022-12-07T10:25:30;21.00;;;11.20;;
39176;SDS011;24904;52.208;21.192;2022-12-07T10:30:45;20.60;;;11.50;;
39176;SDS011;24904;52.208;21.192;2022-12-07T10:35:53;20.50;;;12.10;;
39176;SDS011;24904;52.208;21.192;2022-12-07T10:41:03;19.30;;;11.20;;
39176;SDS011;24904;52.208;21.192;2022-12-07T10:46:14;19.30;;;12.00;;
39176;SDS011;24904;52.208;21.192;2022-12-07T10:51:41;17.30;;;10.60;;
39176;SDS011;24904;52.208;21.192;2022-12-07T10:56:56;15.60;;;10.90;;
39176;SDS011;24904;52.208;21.192;2022-12-07T11:02:20;20.10;;;11.70;;
39176;SDS011;24904;52.208;21.192;2022-12-07T11:07:36;17.90;;;11.10;;
39176;SDS011;24904;52.208;21.192;2022-12-07T11:12:50;20.70;;;11.30;;
39176;SDS011;24904;52.208;21.192;2022-12-07T11:18:13;19.80;;;12.00;;
39176;SDS011;24904;52.208;21.192;2022-12-07T11:23:26;17.50;;;11.10;;
39176;SDS011;24904;52.208;21.192;2022-12-07T11:28:47;18.50;;;12.00;;
39176;SDS011;24904;52.208;21.192;2022-12-07T11:34:13;20.50;;;11.40;;
39176;SDS011;24904;52.208;21.192;2022-12-07T11:39:25;16.80;;;10.60;;
39176;SDS011;24904;52.208;21.192;2022-12-07T11:44:33;15.00;;;10.80;;
39176;SDS011;24904;52.208;21.192;2022-12-07T11:49:42;18.50;;;11.50;;
39176;SDS011;24904;52.208;21.192;2022-12-07T11:54:49;16.80;;;10.70;;
39176;SDS011;24904;52.208;21.192;2022-12-07T11:59:57;15.80;;;10.50;;
39176;SDS011;24904;52.208;21.192;2022-12-07T12:05:07;21.70;;;11.10;;
39176;SDS011;24904;52.208;21.192;2022-12-07T12:10:20;14.70;;;9.90;;
39176;SDS011;24904;52.208;21.192;2022-12-07T12:15:37;16.60;;;10.70;;
39176;SDS011;24904;52.208;21.192;2022-12-07T12:20:51;15.10;;;10.70;;
39176;SDS011;24904;52.208;21.192;2022-12-07T12:26:00;13.80;;;9.50;;
39176;SDS011;24904;52.208;21.192;2022-12-07T12:31:11;14.10;;;10.30;;
39176;SDS011;24904;52.208;21.192;2022-12-07T12:36:19;15.10;;;10.10;;
39176;SDS011;24904;52.208;21.192;2022-12-07T12:52:50;15.30;;;10.50;;
39176;SDS011;24904;52.208;21.192;2022-12-07T12:58:31;13.70;;;8.20;;
39176;SDS011;24904;52.208;21.192;2022-12-07T13:03:39;14.10;;;9.50;;
39176;SDS011;24904;52.208;21.192;2022-12-07T13:08:55;12.10;;;8.80;;
39176;SDS011;24904;52.208;21.192;2022-12-07T13:24:56;12.90;;;8.60;;
39176;SDS011;24904;52.208;21.192;2022-12-07T13:30:00;12.30;;;8.60;;
39176;SDS011;24904;52.208;21.192;2022-12-07T13:35:30;12.20;;;8.90;;
39176;SDS011;24904;52.208;21.192;2022-12-07T13:40:35;12.80;;;9.10;;
39176;SDS011;24904;52.208;21.192;2022-12-07T13:45:39;14.40;;;9.30;;
39176;SDS011;24904;52.208;21.192;2022-12-07T13:50:56;13.30;;;9.20;;
39176;SDS011;24904;52.208;21.192;2022-12-07T13:56:00;12.10;;;8.60;;
39176;SDS011;24904;52.208;21.192;2022-12-07T14:01:03;13.60;;;9.00;;
39176;SDS011;24904;52.208;21.192;2022-12-07T14:06:18;14.10;;;9.30;;
39176;SDS011;24904;52.208;21.192;2022-12-07T14:11:28;13.80;;;8.70;;
39176;SDS011;24904;52.208;21.192;2022-12-07T14:16:32;11.50;;;8.20;;
39176;SDS011;24904;52.208;21.192;2022-12-07T14:21:39;12.20;;;8.30;;
39176;SDS011;24904;52.208;21.192;2022-12-07T14:26:42;12.30;;;8.90;;
39176;SDS011;24904;52.208;21.192;2022-12-07T14:31:45;11.20;;;7.40;;
39176;SDS011;24904;52.208;21.192;2022-12-07T14:36:49;10.00;;;7.50;;
39176;SDS011;24904;52.208;21.192;2022-12-07T14:41:52;9.20;;;7.50;;
39176;SDS011;24904;52.208;21.192;2022-12-07T14:46:55;10.80;;;8.30;;
39176;SDS011;24904;52.208;21.192;2022-12-07T14:51:58;14.40;;;9.70;;
39176;SDS011;24904;52.208;21.192;2022-12-07T14:57:01;14.70;;;8.40;;
39176;SDS011;24904;52.208;21.192;2022-12-07T15:02:04;12.40;;;8.50;;
39176;SDS011;24904;52.208;21.192;2022-12-07T15:07:10;11.50;;;8.50;;
39176;SDS011;24904;52.208;21.192;2022-12-07T15:12:18;14.00;;;9.40;;
39176;SDS011;24904;52.208;21.192;2022-12-07T15:17:21;15.30;;;10.50;;
39176;SDS011;24904;52.208;21.192;2022-12-07T15:22:24;12.90;;;9.30;;
39176;SDS011;24904;52.208;21.192;2022-12-07T15:27:27;14.20;;;10.30;;
39176;SDS011;24904;52.208;21.192;2022-12-07T15:32:31;23.80;;;11.30;;
39176;SDS011;24904;52.208;21.192;2022-12-07T15:37:34;15.80;;;10.50;;
39176;SDS011;24904;52.208;21.192;2022-12-07T15:42:37;15.10;;;9.60;;
39176;SDS011;24904;52.208;21.192;2022-12-07T15:47:41;17.80;;;11.10;;
39176;SDS011;24904;52.208;21.192;2022-12-07T15:52:45;14.70;;;10.80;;
39176;SDS011;24904;52.208;21.192;2022-12-07T15:57:49;15.20;;;10.90;;
39176;SDS011;24904;52.208;21.192;2022-12-07T16:02:52;18.80;;;11.00;;
39176;SDS011;24904;52.208;21.192;2022-12-07T16:07:55;17.40;;;11.50;;
39176;SDS011;24904;52.208;21.192;2022-12-07T16:12:58;16.30;;;11.80;;
39176;SDS011;24904;52.208;21.192;2022-12-07T16:18:01;18.90;;;11.80;;
39176;SDS011;24904;52.208;21.192;2022-12-07T16:23:04;18.00;;;11.10;;
39176;SDS011;24904;52.208;21.192;2022-12-07T16:28:08;17.10;;;10.80;;
39176;SDS011;24904;52.208;21.192;2022-12-07T16:33:11;18.50;;;12.60;;
39176;SDS011;24904;52.208;21.192;2022-12-07T16:38:14;18.30;;;11.80;;
39176;SDS011;24904;52.208;21.192;2022-12-07T16:43:17;17.80;;;11.70;;
39176;SDS011;24904;52.208;21.192;2022-12-07T16:48:20;17.00;;;11.60;;
39176;SDS011;24904;52.208;21.192;2022-12-07T16:53:23;17.60;;;11.70;;
39176;SDS011;24904;52.208;21.192;2022-12-07T16:58:26;18.20;;;12.50;;
39176;SDS011;24904;52.208;21.192;2022-12-07T17:03:30;18.00;;;12.00;;
39176;SDS011;24904;52.208;21.192;2022-12-07T17:08:33;17.30;;;11.50;;
39176;SDS011;24904;52.208;21.192;2022-12-07T17:13:36;19.80;;;13.10;;
39176;SDS011;24904;52.208;21.192;2022-12-07T17:18:57;20.70;;;13.50;;
39176;SDS011;24904;52.208;21.192;2022-12-07T17:24:01;18.50;;;12.40;;
39176;SDS011;24904;52.208;21.192;2022-12-07T17:29:06;18.40;;;12.50;;
39176;SDS011;24904;52.208;21.192;2022-12-07T17:34:10;21.80;;;12.90;;
39176;SDS011;24904;52.208;21.192;2022-12-07T17:39:15;18.60;;;12.60;;
39176;SDS011;24904;52.208;21.192;2022-12-07T17:44:19;21.50;;;12.80;;
39176;SDS011;24904;52.208;21.192;2022-12-07T17:49:22;22.90;;;12.90;;
39176;SDS011;24904;52.208;21.192;2022-12-07T17:54:26;20.00;;;13.40;;
39176;SDS011;24904;52.208;21.192;2022-12-07T17:59:30;19.60;;;12.00;;
39176;SDS011;24904;52.208;21.192;2022-12-07T18:04:33;19.40;;;12.40;;
39176;SDS011;24904;52.208;21.192;2022-12-07T18:09:36;20.80;;;11.90;;
39176;SDS011;24904;52.208;21.192;2022-12-07T18:14:40;17.20;;;11.90;;
39176;SDS011;24904;52.208;21.192;2022-12-07T18:19:43;15.40;;;10.90;;
39176;SDS011;24904;52.208;21.192;2022-12-07T18:24:46;17.20;;;10.40;;
39176;SDS011;24904;52.208;21.192;2022-12-07T18:29:49;21.30;;;11.10;;
39176;SDS011;24904;52.208;21.192;2022-12-07T18:34:54;16.40;;;11.20;;
39176;SDS011;24904;52.208;21.192;2022-12-07T18:39:57;17.40;;;11.00;;
39176;SDS011;24904;52.208;21.192;2022-12-07T18:45:00;15.00;;;9.70;;
39176;SDS011;24904;52.208;21.192;2022-12-07T18:50:04;15.30;;;9.50;;
39176;SDS011;24904;52.208;21.192;2022-12-07T18:55:08;14.00;;;9.10;;
39176;SDS011;24904;52.208;21.192;2022-12-07T19:00:12;16.00;;;10.40;;
39176;SDS011;24904;52.208;21.192;2022-12-07T19:05:17;14.30;;;9.70;;
39176;SDS011;24904;52.208;21.192;2022-12-07T19:10:20;16.10;;;10.70;;
39176;SDS011;24904;52.208;21.192;2022-12-07T19:15:23;17.80;;;10.70;;
39176;SDS011;24904;52.208;21.192;2022-12-07T19:20:26;17.70;;;11.70;;
39176;SDS011;24904;52.208;21.192;2022-12-07T19:25:29;18.30;;;12.00;;
39176;SDS011;24904;52.208;21.192;2022-12-07T19:30:32;18.90;;;10.20;;
39176;SDS011;24904;52.208;21.192;2022-12-07T19:35:35;16.40;;;10.70;;
39176;SDS011;24904;52.208;21.192;2022-12-07T19:40:38;13.80;;;9.60;;
39176;SDS011;24904;52.208;21.192;2022-12-07T19:45:41;15.40;;;9.50;;
39176;SDS011;24904;52.208;21.192;2022-12-07T19:50:44;15.10;;;9.20;;
39176;SDS011;24904;52.208;21.192;2022-12-07T19:55:47;13.50;;;9.40;;
39176;SDS011;24904;52.208;21.192;2022-12-07T20:00:50;14.80;;;9.10;;
39176;SDS011;24904;52.208;21.192;2022-12-07T20:05:53;16.20;;;9.70;;
39176;SDS011;24904;52.208;21.192;2022-12-07T20:10:58;14.50;;;9.10;;
39176;SDS011;24904;52.208;21.192;2022-12-07T20:16:21;15.10;;;9.60;;
39176;SDS011;24904;52.208;21.192;2022-12-07T20:21:24;18.40;;;9.50;;
39176;SDS011;24904;52.208;21.192;2022-12-07T20:26:28;15.80;;;7.50;;
39176;SDS011;24904;52.208;21.192;2022-12-07T20:31:31;14.30;;;7.60;;
39176;SDS011;24904;52.208;21.192;2022-12-07T20:36:34;13.90;;;8.10;;
39176;SDS011;24904;52.208;21.192;2022-12-07T20:41:38;9.90;;;6.30;;
39176;SDS011;24904;52.208;21.192;2022-12-07T20:47:00;9.50;;;6.80;;
39176;SDS011;24904;52.208;21.192;2022-12-07T20:52:03;8.60;;;6.20;;
39176;SDS011;24904;52.208;21.192;2022-12-07T20:57:06;7.90;;;5.80;;
39176;SDS011;24904;52.208;21.192;2022-12-07T21:02:10;10.60;;;5.90;;
39176;SDS011;24904;52.208;21.192;2022-12-07T21:07:13;9.40;;;5.40;;
39176;SDS011;24904;52.208;21.192;2022-12-07T21:12:16;8.70;;;5.00;;
39176;SDS011;24904;52.208;21.192;2022-12-07T21:17:19;11.70;;;6.00;;
39176;SDS011;24904;52.208;21.192;2022-12-07T21:22:22;7.40;;;5.30;;
39176;SDS011;24904;52.208;21.192;2022-12-07T21:27:25;9.70;;;5.50;;
39176;SDS011;24904;52.208;21.192;2022-12-07T21:32:28;9.10;;;5.50;;
39176;SDS011;24904;52.208;21.192;2022-12-07T21:37:31;9.60;;;5.50;;
39176;SDS011;24904;52.208;21.192;2022-12-07T21:42:34;9.00;;;5.30;;
39176;SDS011;24904;52.208;21.192;2022-12-07T21:47:37;8.40;;;4.90;;
39176;SDS011;24904;52.208;21.192;2022-12-07T21:52:40;9.20;;;5.40;;
39176;SDS011;24904;52.208;21.192;2022-12-07T21:57:43;8.90;;;5.00;;
39176;SDS011;24904;52.208;21.192;2022-12-07T22:02:46;8.30;;;5.20;;
39176;SDS011;24904;52.208;21.192;2022-12-07T22:07:49;11.60;;;5.50;;
39176;SDS011;24904;52.208;21.192;2022-12-07T22:12:53;9.20;;;5.50;;
39176;SDS011;24904;52.208;21.192;2022-12-07T22:17:57;8.90;;;5.10;;
39176;SDS011;24904;52.208;21.192;2022-12-07T22:23:00;10.80;;;5.10;;
39176;SDS011;24904;52.208;21.192;2022-12-07T22:28:03;9.90;;;5.40;;
39176;SDS011;24904;52.208;21.192;2022-12-07T22:33:06;6.00;;;3.70;;
39176;SDS011;24904;52.208;21.192;2022-12-07T22:38:09;8.60;;;4.80;;
39176;SDS011;24904;52.208;21.192;2022-12-07T22:43:12;9.90;;;5.40;;
39176;SDS011;24904;52.208;21.192;2022-12-07T22:48:15;14.30;;;6.60;;
39176;SDS011;24904;52.208;21.192;2022-12-07T22:53:18;9.00;;;5.10;;
39176;SDS011;24904;52.208;21.192;2022-12-07T22:58:22;9.30;;;4.60;;
39176;SDS011;24904;52.208;21.192;2022-12-07T23:03:28;10.10;;;4.90;;
39176;SDS011;24904;52.208;21.192;2022-12-07T23:08:31;12.30;;;5.00;;
39176;SDS011;24904;52.208;21.192;2022-12-07T23:13:34;8.20;;;4.40;;
39176;SDS011;24904;52.208;21.192;2022-12-07T23:18:38;9.70;;;5.40;;
39176;SDS011;24904;52.208;21.192;2022-12-07T23:23:42;16.00;;;5.90;;
39176;SDS011;24904;52.208;21.192;2022-12-07T23:28:45;10.60;;;5.30;;
39176;SDS011;24904;52.208;21.192;2022-12-07T23:33:48;14.40;;;6.20;;
39176;SDS011;24904;52.208;21.192;2022-12-07T23:38:51;14.30;;;5.90;;
39176;SDS011;24904;52.208;21.192;2022-12-07T23:43:57;11.40;;;5.90;;
39176;SDS011;24904;52.208;21.192;2022-12-07T23:49:01;9.90;;;4.90;;
39176;SDS011;24904;52.208;21.192;2022-12-07T23:54:05;10.20;;;5.00;;
39176;SDS011;24904;52.208;21.192;2022-12-07T23:59:09;9.40;;;5.20;;
